sensor_id;sensor_type;location;lat;lon;timestamp;P1;durP1;ratioP1;P2;durP2;ratioP2
18818;SDS011;9537;45.594;9.294;2022-10-22T00:00:06;18.57;;;12.70;;
18818;SDS011;9537;45.594;9.294;2022-10-22T00:01:09;21.40;;;12.03;;
18818;SDS011;9537;45.594;9.294;2022-10-22T00:02:11;17.13;;;12.07;;
18818;SDS011;9537;45.594;9.294;2022-10-22T00:03:17;21.37;;;12.33;;
18818;SDS011;9537;45.594;9.294;2022-10-22T00:04:19;22.20;;;12.63;;
18818;SDS011;9537;45.594;9.294;2022-10-22T00:05:20;18.40;;;12.48;;
18818;SDS011;9537;45.594;9.294;2022-10-22T00:06:22;17.70;;;11.00;;
18818;SDS011;9537;45.594;9.294;2022-10-22T00:07:23;16.23;;;12.13;;
18818;SDS011;9537;45.594;9.294;2022-10-22T00:08:26;17.43;;;11.83;;
18818;SDS011;9537;45.594;9.294;2022-10-22T00:09:27;20.10;;;12.07;;
18818;SDS011;9537;45.594;9.294;2022-10-22T00:10:29;16.63;;;11.43;;
18818;SDS011;9537;45.594;9.294;2022-10-22T00:11:30;16.17;;;12.33;;
18818;SDS011;9537;45.594;9.294;2022-10-22T00:12:32;18.03;;;12.60;;
18818;SDS011;9537;45.594;9.294;2022-10-22T00:13:33;17.10;;;11.90;;
18818;SDS011;9537;45.594;9.294;2022-10-22T00:14:35;21.57;;;12.87;;
18818;SDS011;9537;45.594;9.294;2022-10-22T00:15:37;17.83;;;12.03;;
18818;SDS011;9537;45.594;9.294;2022-10-22T00:16:39;18.53;;;11.70;;
18818;SDS011;9537;45.594;9.294;2022-10-22T00:17:40;17.23;;;11.97;;
18818;SDS011;9537;45.594;9.294;2022-10-22T00:18:44;15.30;;;11.87;;
18818;SDS011;9537;45.594;9.294;2022-10-22T00:19:45;19.03;;;11.40;;
18818;SDS011;9537;45.594;9.294;2022-10-22T00:20:47;20.20;;;12.87;;
18818;SDS011;9537;45.594;9.294;2022-10-22T00:21:48;19.10;;;12.13;;
18818;SDS011;9537;45.594;9.294;2022-10-22T00:22:50;18.07;;;11.83;;
18818;SDS011;9537;45.594;9.294;2022-10-22T00:23:51;17.63;;;11.57;;
18818;SDS011;9537;45.594;9.294;2022-10-22T00:24:53;16.53;;;11.33;;
18818;SDS011;9537;45.594;9.294;2022-10-22T00:25:54;15.40;;;11.70;;
18818;SDS011;9537;45.594;9.294;2022-10-22T00:26:56;16.40;;;11.57;;
18818;SDS011;9537;45.594;9.294;2022-10-22T00:27:57;18.40;;;11.73;;
18818;SDS011;9537;45.594;9.294;2022-10-22T00:28:59;15.60;;;11.23;;
18818;SDS011;9537;45.594;9.294;2022-10-22T00:29:59;17.50;;;11.83;;
18818;SDS011;9537;45.594;9.294;2022-10-22T00:31:02;18.37;;;11.73;;
18818;SDS011;9537;45.594;9.294;2022-10-22T00:32:03;15.80;;;11.40;;
18818;SDS011;9537;45.594;9.294;2022-10-22T00:33:06;16.43;;;10.43;;
18818;SDS011;9537;45.594;9.294;2022-10-22T00:34:10;15.17;;;11.67;;
18818;SDS011;9537;45.594;9.294;2022-10-22T00:35:11;17.53;;;11.20;;
18818;SDS011;9537;45.594;9.294;2022-10-22T00:36:13;15.33;;;11.30;;
18818;SDS011;9537;45.594;9.294;2022-10-22T00:37:16;16.60;;;11.50;;
18818;SDS011;9537;45.594;9.294;2022-10-22T00:38:17;15.73;;;11.27;;
18818;SDS011;9537;45.594;9.294;2022-10-22T00:39:20;20.53;;;11.77;;
18818;SDS011;9537;45.594;9.294;2022-10-22T00:40:22;15.43;;;10.90;;
18818;SDS011;9537;45.594;9.294;2022-10-22T00:41:25;16.70;;;12.03;;
18818;SDS011;9537;45.594;9.294;2022-10-22T00:42:26;15.77;;;11.33;;
18818;SDS011;9537;45.594;9.294;2022-10-22T00:43:30;14.57;;;10.83;;
18818;SDS011;9537;45.594;9.294;2022-10-22T00:46:04;15.67;;;11.30;;
18818;SDS011;9537;45.594;9.294;2022-10-22T00:47:06;15.73;;;11.07;;
18818;SDS011;9537;45.594;9.294;2022-10-22T00:48:07;17.87;;;11.43;;
18818;SDS011;9537;45.594;9.294;2022-10-22T00:49:12;17.20;;;10.83;;
18818;SDS011;9537;45.594;9.294;2022-10-22T00:50:15;16.43;;;11.40;;
18818;SDS011;9537;45.594;9.294;2022-10-22T00:51:22;19.43;;;12.27;;
18818;SDS011;9537;45.594;9.294;2022-10-22T00:52:28;18.87;;;11.13;;
18818;SDS011;9537;45.594;9.294;2022-10-22T00:53:30;13.23;;;9.83;;
18818;SDS011;9537;45.594;9.294;2022-10-22T00:54:34;19.57;;;10.70;;
18818;SDS011;9537;45.594;9.294;2022-10-22T00:55:37;15.70;;;10.17;;
18818;SDS011;9537;45.594;9.294;2022-10-22T00:56:41;18.80;;;12.57;;
18818;SDS011;9537;45.594;9.294;2022-10-22T00:57:44;20.87;;;12.53;;
18818;SDS011;9537;45.594;9.294;2022-10-22T00:58:46;16.63;;;11.40;;
18818;SDS011;9537;45.594;9.294;2022-10-22T00:59:51;16.20;;;11.50;;
18818;SDS011;9537;45.594;9.294;2022-10-22T01:00:55;14.37;;;9.80;;
18818;SDS011;9537;45.594;9.294;2022-10-22T01:01:58;15.80;;;11.40;;
18818;SDS011;9537;45.594;9.294;2022-10-22T01:02:59;15.83;;;11.17;;
18818;SDS011;9537;45.594;9.294;2022-10-22T01:04:01;13.90;;;10.57;;
18818;SDS011;9537;45.594;9.294;2022-10-22T01:05:04;15.97;;;10.87;;
18818;SDS011;9537;45.594;9.294;2022-10-22T01:06:06;16.40;;;11.00;;
18818;SDS011;9537;45.594;9.294;2022-10-22T01:07:12;16.03;;;9.97;;
18818;SDS011;9537;45.594;9.294;2022-10-22T01:08:17;17.53;;;11.47;;
18818;SDS011;9537;45.594;9.294;2022-10-22T01:09:28;16.20;;;10.73;;
18818;SDS011;9537;45.594;9.294;2022-10-22T01:10:41;15.43;;;10.73;;
18818;SDS011;9537;45.594;9.294;2022-10-22T01:11:52;18.43;;;11.33;;
18818;SDS011;9537;45.594;9.294;2022-10-22T01:13:05;16.20;;;10.70;;
18818;SDS011;9537;45.594;9.294;2022-10-22T01:14:18;17.00;;;11.20;;
18818;SDS011;9537;45.594;9.294;2022-10-22T01:15:29;14.53;;;11.27;;
18818;SDS011;9537;45.594;9.294;2022-10-22T01:16:40;16.00;;;10.70;;
18818;SDS011;9537;45.594;9.294;2022-10-22T01:17:50;14.77;;;11.37;;
18818;SDS011;9537;45.594;9.294;2022-10-22T01:19:00;17.23;;;11.10;;
18818;SDS011;9537;45.594;9.294;2022-10-22T01:20:17;14.37;;;10.60;;
18818;SDS011;9537;45.594;9.294;2022-10-22T01:21:35;14.43;;;10.43;;
18818;SDS011;9537;45.594;9.294;2022-10-22T01:22:44;15.13;;;10.83;;
18818;SDS011;9537;45.594;9.294;2022-10-22T01:24:09;13.50;;;10.50;;
18818;SDS011;9537;45.594;9.294;2022-10-22T01:25:23;16.10;;;10.20;;
18818;SDS011;9537;45.594;9.294;2022-10-22T01:26:36;14.30;;;10.13;;
18818;SDS011;9537;45.594;9.294;2022-10-22T01:27:55;15.40;;;10.13;;
18818;SDS011;9537;45.594;9.294;2022-10-22T01:29:08;14.43;;;10.33;;
18818;SDS011;9537;45.594;9.294;2022-10-22T01:30:13;19.37;;;11.63;;
18818;SDS011;9537;45.594;9.294;2022-10-22T01:31:16;15.33;;;11.13;;
18818;SDS011;9537;45.594;9.294;2022-10-22T01:32:21;15.13;;;10.27;;
18818;SDS011;9537;45.594;9.294;2022-10-22T01:33:26;15.60;;;10.73;;
18818;SDS011;9537;45.594;9.294;2022-10-22T01:34:29;14.50;;;10.70;;
18818;SDS011;9537;45.594;9.294;2022-10-22T01:35:33;13.33;;;9.47;;
18818;SDS011;9537;45.594;9.294;2022-10-22T01:36:39;15.73;;;10.53;;
18818;SDS011;9537;45.594;9.294;2022-10-22T01:37:42;14.68;;;10.40;;
18818;SDS011;9537;45.594;9.294;2022-10-22T01:38:47;13.23;;;9.80;;
18818;SDS011;9537;45.594;9.294;2022-10-22T01:39:50;16.80;;;11.23;;
18818;SDS011;9537;45.594;9.294;2022-10-22T01:40:53;14.07;;;10.27;;
18818;SDS011;9537;45.594;9.294;2022-10-22T01:41:56;14.67;;;10.27;;
18818;SDS011;9537;45.594;9.294;2022-10-22T01:42:59;16.47;;;10.17;;
18818;SDS011;9537;45.594;9.294;2022-10-22T01:44:01;15.57;;;11.13;;
18818;SDS011;9537;45.594;9.294;2022-10-22T01:45:11;15.70;;;10.83;;
18818;SDS011;9537;45.594;9.294;2022-10-22T01:46:13;17.93;;;11.30;;
18818;SDS011;9537;45.594;9.294;2022-10-22T01:47:26;15.10;;;10.67;;
18818;SDS011;9537;45.594;9.294;2022-10-22T01:48:42;15.73;;;10.37;;
18818;SDS011;9537;45.594;9.294;2022-10-22T01:51:37;15.57;;;10.60;;
18818;SDS011;9537;45.594;9.294;2022-10-22T01:52:52;15.47;;;10.30;;
18818;SDS011;9537;45.594;9.294;2022-10-22T01:54:07;15.30;;;10.10;;
18818;SDS011;9537;45.594;9.294;2022-10-22T01:55:20;14.50;;;10.27;;
18818;SDS011;9537;45.594;9.294;2022-10-22T01:56:34;15.77;;;10.57;;
18818;SDS011;9537;45.594;9.294;2022-10-22T01:57:51;14.23;;;11.13;;
18818;SDS011;9537;45.594;9.294;2022-10-22T01:59:02;17.03;;;10.97;;
18818;SDS011;9537;45.594;9.294;2022-10-22T02:00:09;17.47;;;11.07;;
18818;SDS011;9537;45.594;9.294;2022-10-22T02:01:17;13.80;;;9.90;;
18818;SDS011;9537;45.594;9.294;2022-10-22T02:02:28;14.90;;;10.33;;
18818;SDS011;9537;45.594;9.294;2022-10-22T02:03:39;15.13;;;11.00;;
18818;SDS011;9537;45.594;9.294;2022-10-22T02:04:45;15.00;;;10.23;;
18818;SDS011;9537;45.594;9.294;2022-10-22T02:05:53;18.83;;;10.90;;
18818;SDS011;9537;45.594;9.294;2022-10-22T02:06:58;14.53;;;9.93;;
18818;SDS011;9537;45.594;9.294;2022-10-22T02:08:04;15.97;;;11.17;;
18818;SDS011;9537;45.594;9.294;2022-10-22T02:09:09;14.97;;;10.10;;
18818;SDS011;9537;45.594;9.294;2022-10-22T02:10:13;14.40;;;9.93;;
18818;SDS011;9537;45.594;9.294;2022-10-22T02:11:17;14.70;;;10.10;;
18818;SDS011;9537;45.594;9.294;2022-10-22T02:12:18;17.60;;;11.00;;
18818;SDS011;9537;45.594;9.294;2022-10-22T02:13:23;16.23;;;10.47;;
18818;SDS011;9537;45.594;9.294;2022-10-22T02:14:27;15.03;;;9.87;;
18818;SDS011;9537;45.594;9.294;2022-10-22T02:15:32;14.57;;;10.83;;
18818;SDS011;9537;45.594;9.294;2022-10-22T02:16:37;15.30;;;10.07;;
18818;SDS011;9537;45.594;9.294;2022-10-22T02:17:44;16.63;;;10.13;;
18818;SDS011;9537;45.594;9.294;2022-10-22T02:18:46;14.60;;;9.53;;
18818;SDS011;9537;45.594;9.294;2022-10-22T02:19:52;15.07;;;10.03;;
18818;SDS011;9537;45.594;9.294;2022-10-22T02:20:56;16.00;;;10.80;;
18818;SDS011;9537;45.594;9.294;2022-10-22T02:22:01;14.50;;;9.90;;
18818;SDS011;9537;45.594;9.294;2022-10-22T02:23:02;14.20;;;9.40;;
18818;SDS011;9537;45.594;9.294;2022-10-22T02:24:05;13.33;;;9.67;;
18818;SDS011;9537;45.594;9.294;2022-10-22T02:25:07;15.60;;;10.43;;
18818;SDS011;9537;45.594;9.294;2022-10-22T02:26:13;15.83;;;10.20;;
18818;SDS011;9537;45.594;9.294;2022-10-22T02:27:20;13.57;;;10.27;;
18818;SDS011;9537;45.594;9.294;2022-10-22T02:28:28;16.77;;;10.30;;
18818;SDS011;9537;45.594;9.294;2022-10-22T02:29:36;15.53;;;10.77;;
18818;SDS011;9537;45.594;9.294;2022-10-22T02:30:43;14.23;;;9.83;;
18818;SDS011;9537;45.594;9.294;2022-10-22T02:31:48;17.53;;;10.87;;
18818;SDS011;9537;45.594;9.294;2022-10-22T02:32:53;12.90;;;9.63;;
18818;SDS011;9537;45.594;9.294;2022-10-22T02:34:00;14.40;;;10.50;;
18818;SDS011;9537;45.594;9.294;2022-10-22T02:35:07;15.50;;;10.90;;
18818;SDS011;9537;45.594;9.294;2022-10-22T02:36:12;17.43;;;10.73;;
18818;SDS011;9537;45.594;9.294;2022-10-22T02:37:15;16.40;;;10.27;;
18818;SDS011;9537;45.594;9.294;2022-10-22T02:38:17;16.70;;;10.50;;
18818;SDS011;9537;45.594;9.294;2022-10-22T02:39:19;17.33;;;10.23;;
18818;SDS011;9537;45.594;9.294;2022-10-22T02:40:22;16.17;;;10.23;;
18818;SDS011;9537;45.594;9.294;2022-10-22T02:41:24;17.40;;;10.07;;
18818;SDS011;9537;45.594;9.294;2022-10-22T02:42:26;14.30;;;10.30;;
18818;SDS011;9537;45.594;9.294;2022-10-22T02:43:29;16.03;;;10.10;;
18818;SDS011;9537;45.594;9.294;2022-10-22T02:44:30;15.87;;;10.80;;
18818;SDS011;9537;45.594;9.294;2022-10-22T02:45:32;15.73;;;10.13;;
18818;SDS011;9537;45.594;9.294;2022-10-22T02:46:36;14.17;;;10.37;;
18818;SDS011;9537;45.594;9.294;2022-10-22T02:47:38;13.37;;;9.67;;
18818;SDS011;9537;45.594;9.294;2022-10-22T02:48:39;12.77;;;9.93;;
18818;SDS011;9537;45.594;9.294;2022-10-22T02:49:41;14.67;;;9.83;;
18818;SDS011;9537;45.594;9.294;2022-10-22T02:50:42;14.17;;;9.77;;
18818;SDS011;9537;45.594;9.294;2022-10-22T02:51:44;16.73;;;10.83;;
18818;SDS011;9537;45.594;9.294;2022-10-22T02:52:45;14.37;;;9.83;;
18818;SDS011;9537;45.594;9.294;2022-10-22T02:53:47;16.10;;;9.67;;
18818;SDS011;9537;45.594;9.294;2022-10-22T02:54:48;14.20;;;9.87;;
18818;SDS011;9537;45.594;9.294;2022-10-22T02:55:50;14.13;;;10.17;;
18818;SDS011;9537;45.594;9.294;2022-10-22T02:56:51;13.17;;;9.70;;
18818;SDS011;9537;45.594;9.294;2022-10-22T02:57:53;14.87;;;10.00;;
18818;SDS011;9537;45.594;9.294;2022-10-22T02:58:54;17.07;;;10.53;;
18818;SDS011;9537;45.594;9.294;2022-10-22T02:59:56;16.77;;;9.47;;
18818;SDS011;9537;45.594;9.294;2022-10-22T03:00:57;13.93;;;9.90;;
18818;SDS011;9537;45.594;9.294;2022-10-22T03:02:00;14.97;;;10.43;;
18818;SDS011;9537;45.594;9.294;2022-10-22T03:03:03;13.60;;;10.43;;
18818;SDS011;9537;45.594;9.294;2022-10-22T03:04:05;11.80;;;9.40;;
18818;SDS011;9537;45.594;9.294;2022-10-22T03:05:06;14.13;;;10.10;;
18818;SDS011;9537;45.594;9.294;2022-10-22T03:06:09;16.67;;;10.53;;
18818;SDS011;9537;45.594;9.294;2022-10-22T03:07:10;14.30;;;10.37;;
18818;SDS011;9537;45.594;9.294;2022-10-22T03:08:12;12.50;;;9.87;;
18818;SDS011;9537;45.594;9.294;2022-10-22T03:09:13;15.97;;;10.60;;
18818;SDS011;9537;45.594;9.294;2022-10-22T03:10:15;14.43;;;10.23;;
18818;SDS011;9537;45.594;9.294;2022-10-22T03:11:16;16.57;;;10.17;;
18818;SDS011;9537;45.594;9.294;2022-10-22T03:12:18;16.03;;;10.73;;
18818;SDS011;9537;45.594;9.294;2022-10-22T03:13:19;12.73;;;9.33;;
18818;SDS011;9537;45.594;9.294;2022-10-22T03:14:21;13.80;;;9.87;;
18818;SDS011;9537;45.594;9.294;2022-10-22T03:15:22;13.27;;;10.47;;
18818;SDS011;9537;45.594;9.294;2022-10-22T03:16:24;21.20;;;10.43;;
18818;SDS011;9537;45.594;9.294;2022-10-22T03:17:27;15.07;;;10.70;;
18818;SDS011;9537;45.594;9.294;2022-10-22T03:18:29;12.50;;;9.77;;
18818;SDS011;9537;45.594;9.294;2022-10-22T03:19:30;13.90;;;9.37;;
18818;SDS011;9537;45.594;9.294;2022-10-22T03:20:32;13.30;;;9.80;;
18818;SDS011;9537;45.594;9.294;2022-10-22T03:21:34;13.60;;;10.37;;
18818;SDS011;9537;45.594;9.294;2022-10-22T03:22:39;14.67;;;10.40;;
18818;SDS011;9537;45.594;9.294;2022-10-22T03:23:42;14.20;;;10.03;;
18818;SDS011;9537;45.594;9.294;2022-10-22T03:24:45;16.70;;;10.37;;
18818;SDS011;9537;45.594;9.294;2022-10-22T03:25:49;14.40;;;10.37;;
18818;SDS011;9537;45.594;9.294;2022-10-22T03:26:51;14.50;;;10.53;;
18818;SDS011;9537;45.594;9.294;2022-10-22T03:27:52;16.17;;;10.80;;
18818;SDS011;9537;45.594;9.294;2022-10-22T03:28:57;15.93;;;10.17;;
18818;SDS011;9537;45.594;9.294;2022-10-22T03:30:00;16.40;;;10.33;;
18818;SDS011;9537;45.594;9.294;2022-10-22T03:31:02;14.60;;;9.60;;
18818;SDS011;9537;45.594;9.294;2022-10-22T03:32:04;15.27;;;10.53;;
18818;SDS011;9537;45.594;9.294;2022-10-22T03:33:08;17.90;;;11.93;;
18818;SDS011;9537;45.594;9.294;2022-10-22T03:34:09;12.70;;;10.23;;
18818;SDS011;9537;45.594;9.294;2022-10-22T03:35:12;13.13;;;10.40;;
18818;SDS011;9537;45.594;9.294;2022-10-22T03:36:13;15.60;;;9.87;;
18818;SDS011;9537;45.594;9.294;2022-10-22T03:37:15;15.40;;;10.50;;
18818;SDS011;9537;45.594;9.294;2022-10-22T03:38:17;15.73;;;10.63;;
18818;SDS011;9537;45.594;9.294;2022-10-22T03:39:20;13.43;;;10.53;;
18818;SDS011;9537;45.594;9.294;2022-10-22T03:40:22;16.03;;;10.00;;
18818;SDS011;9537;45.594;9.294;2022-10-22T03:41:24;14.37;;;10.17;;
18818;SDS011;9537;45.594;9.294;2022-10-22T03:42:25;14.70;;;10.23;;
18818;SDS011;9537;45.594;9.294;2022-10-22T03:43:28;12.27;;;9.40;;
18818;SDS011;9537;45.594;9.294;2022-10-22T03:44:29;14.20;;;9.57;;
18818;SDS011;9537;45.594;9.294;2022-10-22T03:45:31;14.67;;;10.27;;
18818;SDS011;9537;45.594;9.294;2022-10-22T03:46:32;13.33;;;10.20;;
18818;SDS011;9537;45.594;9.294;2022-10-22T03:47:34;14.77;;;9.83;;
18818;SDS011;9537;45.594;9.294;2022-10-22T03:48:38;14.30;;;10.17;;
18818;SDS011;9537;45.594;9.294;2022-10-22T03:49:40;15.93;;;10.50;;
18818;SDS011;9537;45.594;9.294;2022-10-22T03:50:41;14.23;;;10.60;;
18818;SDS011;9537;45.594;9.294;2022-10-22T03:51:43;19.13;;;10.90;;
18818;SDS011;9537;45.594;9.294;2022-10-22T03:52:44;15.23;;;10.00;;
18818;SDS011;9537;45.594;9.294;2022-10-22T03:53:46;13.83;;;10.77;;
18818;SDS011;9537;45.594;9.294;2022-10-22T03:54:47;13.83;;;10.47;;
18818;SDS011;9537;45.594;9.294;2022-10-22T03:55:49;12.20;;;10.50;;
18818;SDS011;9537;45.594;9.294;2022-10-22T03:56:50;15.38;;;10.45;;
18818;SDS011;9537;45.594;9.294;2022-10-22T03:57:52;13.87;;;10.10;;
18818;SDS011;9537;45.594;9.294;2022-10-22T03:58:54;13.83;;;10.30;;
18818;SDS011;9537;45.594;9.294;2022-10-22T03:59:57;14.47;;;9.93;;
18818;SDS011;9537;45.594;9.294;2022-10-22T04:01:02;16.00;;;10.07;;
18818;SDS011;9537;45.594;9.294;2022-10-22T04:02:05;16.07;;;10.13;;
18818;SDS011;9537;45.594;9.294;2022-10-22T04:03:07;15.60;;;10.20;;
18818;SDS011;9537;45.594;9.294;2022-10-22T04:04:10;14.13;;;9.63;;
18818;SDS011;9537;45.594;9.294;2022-10-22T04:05:11;14.53;;;10.63;;
18818;SDS011;9537;45.594;9.294;2022-10-22T04:06:13;15.37;;;10.83;;
18818;SDS011;9537;45.594;9.294;2022-10-22T04:07:14;15.45;;;10.88;;
18818;SDS011;9537;45.594;9.294;2022-10-22T04:08:16;15.10;;;9.93;;
18818;SDS011;9537;45.594;9.294;2022-10-22T04:09:17;14.30;;;9.60;;
18818;SDS011;9537;45.594;9.294;2022-10-22T04:10:19;15.07;;;10.87;;
18818;SDS011;9537;45.594;9.294;2022-10-22T04:11:20;18.17;;;10.90;;
18818;SDS011;9537;45.594;9.294;2022-10-22T04:12:22;13.67;;;10.30;;
18818;SDS011;9537;45.594;9.294;2022-10-22T04:13:23;16.23;;;11.37;;
18818;SDS011;9537;45.594;9.294;2022-10-22T04:14:25;15.87;;;11.03;;
18818;SDS011;9537;45.594;9.294;2022-10-22T04:15:26;16.43;;;11.87;;
18818;SDS011;9537;45.594;9.294;2022-10-22T04:16:28;14.07;;;10.80;;
18818;SDS011;9537;45.594;9.294;2022-10-22T04:17:32;14.43;;;10.50;;
18818;SDS011;9537;45.594;9.294;2022-10-22T04:18:35;14.80;;;10.67;;
18818;SDS011;9537;45.594;9.294;2022-10-22T04:19:37;17.03;;;11.10;;
18818;SDS011;9537;45.594;9.294;2022-10-22T04:20:40;18.30;;;11.50;;
18818;SDS011;9537;45.594;9.294;2022-10-22T04:21:41;15.37;;;10.50;;
18818;SDS011;9537;45.594;9.294;2022-10-22T04:22:42;17.03;;;11.50;;
18818;SDS011;9537;45.594;9.294;2022-10-22T04:23:44;14.73;;;10.87;;
18818;SDS011;9537;45.594;9.294;2022-10-22T04:24:45;15.07;;;11.05;;
18818;SDS011;9537;45.594;9.294;2022-10-22T04:25:47;14.60;;;10.37;;
18818;SDS011;9537;45.594;9.294;2022-10-22T04:26:48;15.50;;;11.27;;
18818;SDS011;9537;45.594;9.294;2022-10-22T04:27:50;14.03;;;11.53;;
18818;SDS011;9537;45.594;9.294;2022-10-22T04:28:51;17.17;;;11.23;;
18818;SDS011;9537;45.594;9.294;2022-10-22T04:29:54;18.10;;;11.65;;
18818;SDS011;9537;45.594;9.294;2022-10-22T04:30:55;15.20;;;11.57;;
18818;SDS011;9537;45.594;9.294;2022-10-22T04:31:56;14.00;;;11.10;;
18818;SDS011;9537;45.594;9.294;2022-10-22T04:32:58;14.53;;;10.43;;
18818;SDS011;9537;45.594;9.294;2022-10-22T04:34:00;17.40;;;11.33;;
18818;SDS011;9537;45.594;9.294;2022-10-22T04:35:03;15.10;;;11.53;;
18818;SDS011;9537;45.594;9.294;2022-10-22T04:36:05;17.57;;;10.73;;
18818;SDS011;9537;45.594;9.294;2022-10-22T04:37:07;18.83;;;11.23;;
18818;SDS011;9537;45.594;9.294;2022-10-22T04:38:10;16.30;;;11.27;;
18818;SDS011;9537;45.594;9.294;2022-10-22T04:39:11;14.03;;;10.73;;
18818;SDS011;9537;45.594;9.294;2022-10-22T04:40:13;14.93;;;11.40;;
18818;SDS011;9537;45.594;9.294;2022-10-22T04:41:15;13.70;;;11.60;;
18818;SDS011;9537;45.594;9.294;2022-10-22T04:42:19;16.47;;;11.47;;
18818;SDS011;9537;45.594;9.294;2022-10-22T04:43:20;12.87;;;10.57;;
18818;SDS011;9537;45.594;9.294;2022-10-22T04:44:22;15.97;;;10.80;;
18818;SDS011;9537;45.594;9.294;2022-10-22T04:45:23;14.47;;;10.83;;
18818;SDS011;9537;45.594;9.294;2022-10-22T04:46:26;16.47;;;12.03;;
18818;SDS011;9537;45.594;9.294;2022-10-22T04:47:28;15.80;;;10.60;;
18818;SDS011;9537;45.594;9.294;2022-10-22T04:48:30;18.00;;;11.80;;
18818;SDS011;9537;45.594;9.294;2022-10-22T04:49:31;16.13;;;11.03;;
18818;SDS011;9537;45.594;9.294;2022-10-22T04:50:34;14.23;;;10.83;;
18818;SDS011;9537;45.594;9.294;2022-10-22T04:51:36;14.23;;;10.77;;
18818;SDS011;9537;45.594;9.294;2022-10-22T04:52:38;16.87;;;11.23;;
18818;SDS011;9537;45.594;9.294;2022-10-22T04:53:39;18.03;;;11.53;;
18818;SDS011;9537;45.594;9.294;2022-10-22T04:54:41;18.27;;;11.40;;
18818;SDS011;9537;45.594;9.294;2022-10-22T04:55:42;17.27;;;11.43;;
18818;SDS011;9537;45.594;9.294;2022-10-22T04:56:45;17.47;;;11.77;;
18818;SDS011;9537;45.594;9.294;2022-10-22T04:57:45;15.03;;;11.30;;
18818;SDS011;9537;45.594;9.294;2022-10-22T04:58:48;18.43;;;12.13;;
18818;SDS011;9537;45.594;9.294;2022-10-22T04:59:51;15.13;;;11.73;;
18818;SDS011;9537;45.594;9.294;2022-10-22T05:00:52;14.87;;;11.23;;
18818;SDS011;9537;45.594;9.294;2022-10-22T05:01:53;15.57;;;11.93;;
18818;SDS011;9537;45.594;9.294;2022-10-22T05:02:56;14.70;;;11.57;;
18818;SDS011;9537;45.594;9.294;2022-10-22T05:03:58;14.63;;;10.90;;
18818;SDS011;9537;45.594;9.294;2022-10-22T05:05:01;17.13;;;12.23;;
18818;SDS011;9537;45.594;9.294;2022-10-22T05:06:06;14.03;;;11.60;;
18818;SDS011;9537;45.594;9.294;2022-10-22T05:07:08;16.33;;;11.40;;
18818;SDS011;9537;45.594;9.294;2022-10-22T05:08:10;16.83;;;11.53;;
18818;SDS011;9537;45.594;9.294;2022-10-22T05:09:12;15.70;;;11.70;;
18818;SDS011;9537;45.594;9.294;2022-10-22T05:10:16;18.73;;;11.60;;
18818;SDS011;9537;45.594;9.294;2022-10-22T05:11:18;15.30;;;11.40;;
18818;SDS011;9537;45.594;9.294;2022-10-22T05:12:21;13.57;;;10.97;;
18818;SDS011;9537;45.594;9.294;2022-10-22T05:13:23;14.73;;;11.30;;
18818;SDS011;9537;45.594;9.294;2022-10-22T05:14:24;15.70;;;11.33;;
18818;SDS011;9537;45.594;9.294;2022-10-22T05:15:26;15.63;;;12.23;;
18818;SDS011;9537;45.594;9.294;2022-10-22T05:16:29;14.57;;;11.63;;
18818;SDS011;9537;45.594;9.294;2022-10-22T05:17:33;17.63;;;12.00;;
18818;SDS011;9537;45.594;9.294;2022-10-22T05:18:35;14.33;;;11.07;;
18818;SDS011;9537;45.594;9.294;2022-10-22T05:19:37;14.97;;;11.03;;
18818;SDS011;9537;45.594;9.294;2022-10-22T05:20:40;16.27;;;11.80;;
18818;SDS011;9537;45.594;9.294;2022-10-22T05:21:43;15.40;;;11.83;;
18818;SDS011;9537;45.594;9.294;2022-10-22T05:22:45;16.73;;;12.00;;
18818;SDS011;9537;45.594;9.294;2022-10-22T05:23:46;16.03;;;11.87;;
18818;SDS011;9537;45.594;9.294;2022-10-22T05:24:49;17.93;;;11.87;;
18818;SDS011;9537;45.594;9.294;2022-10-22T05:25:50;16.90;;;12.60;;
18818;SDS011;9537;45.594;9.294;2022-10-22T05:26:52;14.43;;;11.93;;
18818;SDS011;9537;45.594;9.294;2022-10-22T05:27:55;16.63;;;11.17;;
18818;SDS011;9537;45.594;9.294;2022-10-22T05:28:56;17.27;;;12.07;;
18818;SDS011;9537;45.594;9.294;2022-10-22T05:29:58;13.63;;;10.73;;
18818;SDS011;9537;45.594;9.294;2022-10-22T05:30:59;15.87;;;12.10;;
18818;SDS011;9537;45.594;9.294;2022-10-22T05:32:01;15.57;;;11.57;;
18818;SDS011;9537;45.594;9.294;2022-10-22T05:33:03;13.90;;;11.33;;
18818;SDS011;9537;45.594;9.294;2022-10-22T05:34:04;14.83;;;11.33;;
18818;SDS011;9537;45.594;9.294;2022-10-22T05:35:05;16.17;;;11.80;;
18818;SDS011;9537;45.594;9.294;2022-10-22T05:36:10;15.60;;;12.30;;
18818;SDS011;9537;45.594;9.294;2022-10-22T05:37:14;16.37;;;11.57;;
18818;SDS011;9537;45.594;9.294;2022-10-22T05:38:16;13.90;;;11.33;;
18818;SDS011;9537;45.594;9.294;2022-10-22T05:39:18;19.30;;;12.37;;
18818;SDS011;9537;45.594;9.294;2022-10-22T05:40:20;16.50;;;11.70;;
18818;SDS011;9537;45.594;9.294;2022-10-22T05:41:22;15.20;;;12.20;;
18818;SDS011;9537;45.594;9.294;2022-10-22T05:42:25;17.43;;;12.23;;
18818;SDS011;9537;45.594;9.294;2022-10-22T05:43:31;15.77;;;11.37;;
18818;SDS011;9537;45.594;9.294;2022-10-22T05:44:33;19.37;;;12.83;;
18818;SDS011;9537;45.594;9.294;2022-10-22T05:45:35;16.13;;;11.97;;
18818;SDS011;9537;45.594;9.294;2022-10-22T05:46:37;16.40;;;11.87;;
18818;SDS011;9537;45.594;9.294;2022-10-22T05:47:39;14.50;;;11.57;;
18818;SDS011;9537;45.594;9.294;2022-10-22T05:48:40;17.37;;;12.07;;
18818;SDS011;9537;45.594;9.294;2022-10-22T05:49:42;13.40;;;11.50;;
18818;SDS011;9537;45.594;9.294;2022-10-22T05:50:43;16.00;;;11.17;;
18818;SDS011;9537;45.594;9.294;2022-10-22T05:51:49;16.73;;;11.77;;
18818;SDS011;9537;45.594;9.294;2022-10-22T05:52:53;15.17;;;11.10;;
18818;SDS011;9537;45.594;9.294;2022-10-22T05:53:55;13.33;;;10.60;;
18818;SDS011;9537;45.594;9.294;2022-10-22T05:54:57;15.57;;;11.77;;
18818;SDS011;9537;45.594;9.294;2022-10-22T05:55:59;14.20;;;11.47;;
18818;SDS011;9537;45.594;9.294;2022-10-22T05:57:02;19.38;;;11.07;;
18818;SDS011;9537;45.594;9.294;2022-10-22T05:58:03;15.50;;;11.20;;
18818;SDS011;9537;45.594;9.294;2022-10-22T05:59:05;16.30;;;11.90;;
18818;SDS011;9537;45.594;9.294;2022-10-22T06:00:06;16.53;;;11.80;;
18818;SDS011;9537;45.594;9.294;2022-10-22T06:01:11;14.80;;;11.43;;
18818;SDS011;9537;45.594;9.294;2022-10-22T06:02:13;13.73;;;11.03;;
18818;SDS011;9537;45.594;9.294;2022-10-22T06:03:15;15.73;;;11.00;;
18818;SDS011;9537;45.594;9.294;2022-10-22T06:04:16;16.13;;;10.87;;
18818;SDS011;9537;45.594;9.294;2022-10-22T06:05:18;20.20;;;12.80;;
18818;SDS011;9537;45.594;9.294;2022-10-22T06:06:20;15.83;;;11.07;;
18818;SDS011;9537;45.594;9.294;2022-10-22T06:07:26;15.57;;;10.03;;
18818;SDS011;9537;45.594;9.294;2022-10-22T06:08:28;17.87;;;11.07;;
18818;SDS011;9537;45.594;9.294;2022-10-22T06:09:32;15.30;;;11.27;;
18818;SDS011;9537;45.594;9.294;2022-10-22T06:10:35;15.33;;;11.67;;
18818;SDS011;9537;45.594;9.294;2022-10-22T06:11:40;14.63;;;10.87;;
18818;SDS011;9537;45.594;9.294;2022-10-22T06:12:41;19.57;;;12.63;;
18818;SDS011;9537;45.594;9.294;2022-10-22T06:13:43;14.27;;;11.77;;
18818;SDS011;9537;45.594;9.294;2022-10-22T06:14:46;17.40;;;12.23;;
18818;SDS011;9537;45.594;9.294;2022-10-22T06:15:48;14.63;;;11.37;;
18818;SDS011;9537;45.594;9.294;2022-10-22T06:16:50;15.57;;;11.63;;
18818;SDS011;9537;45.594;9.294;2022-10-22T06:17:53;13.27;;;10.27;;
18818;SDS011;9537;45.594;9.294;2022-10-22T06:18:54;16.37;;;11.40;;
18818;SDS011;9537;45.594;9.294;2022-10-22T06:19:58;14.40;;;11.10;;